Al Cenac — WDD5445 — position and weather

sailwx.info

Track history (hours):
 
Tides and Currents Weather Stations Pressure Air Temp Water Temp Dewpoint Dewpoint Depression Visibility Wind Speed Wind Dir Waves Ship Positions

Al Cenac

Owner: Caillou Island Towing Co, Inc., Houma, LA. More information available from US FCC via Universal Licensing System and Coast Guard Vessel Documentation Center.

Last reported at 2016-Jul-29 17:33 UTC. Time now 2016-Jul-29 17:54 UTC.
Position N 40°42' W 073°58'.

; draft 10 m.

Type: Tug. MMSI: 367158530.

Date/timePositionNaut miles runAvg speedWind from/ knotsBaromVisibWave heightAir tempDewpointWater temp
2016-Jul-29 17:33N 40°42' W 073°58'0 0.1
2016-Jul-29 16:33N 40°42' W 073°58'2 1.8
2016-Jul-29 15:33N 40°41' W 074°00'8 7.5
2016-Jul-29 14:32N 40°38' W 074°10'0 0.0
2016-Jul-28 16:26N 40°38' W 074°10'0 0.0
2016-Jul-28 11:27N 40°39' W 074°10'3 0.3
2016-Jul-28 01:33N 40°39' W 074°06'9 8.7
2016-Jul-28 00:33N 40°46' W 074°00'3 0.5
2016-Jul-27 19:07N 40°49' W 073°59'611.5
2016-Jul-27 18:34N 40°43' W 074°02'8 1.9
2016-Jul-27 14:28N 40°39' W 074°10'0 0.1
2016-Jul-27 10:33N 40°38' W 074°10'0 0.3
2016-Jul-27 09:33N 40°39' W 074°10'0 0.0
2016-Jul-27 08:33N 40°39' W 074°10'0 0.0
2016-Jul-27 07:33N 40°39' W 074°10'0 0.0
2016-Jul-27 06:33N 40°39' W 074°10'0 0.0
2016-Jul-27 05:33N 40°39' W 074°10'0 0.0
2016-Jul-27 04:33N 40°39' W 074°10'0 0.0
2016-Jul-27 03:33N 40°39' W 074°10'0 0.0
2016-Jul-27 02:33N 40°39' W 074°10'1 0.7
2016-Jul-27 01:33N 40°38' W 074°09'2 2.5
2016-Jul-27 00:33N 40°39' W 074°06'0 0.0
2016-Jul-26 23:33N 40°39' W 074°06'0 0.0
2016-Jul-26 22:33N 40°39' W 074°06'4 1.9
2016-Jul-26 20:17N 40°38' W 074°12'1 0.1
2016-Jul-25 22:19N 40°39' W 074°10'5 5.9
2016-Jul-25 21:33N 40°40' W 074°04'5 3.0
2016-Jul-25 20:04N 40°39' W 074°10'4 7.6
2016-Jul-25 19:33N 40°39' W 074°05'0 0.5
2016-Jul-25 18:33N 40°39' W 074°04'4 4.1
2016-Jul-25 17:30N 40°39' W 074°10'4 4.5
2016-Jul-25 16:33N 40°39' W 074°04'4 0.5
2016-Jul-25 08:19N 40°39' W 074°10'0 0.0
2016-Jul-25 07:33N 40°39' W 074°10'0 0.0
2016-Jul-25 06:30N 40°39' W 074°10'0 0.0
2016-Jul-25 05:33N 40°39' W 074°10'  
2016-Jul-22 22:20N 40°37' W 074°12'2 2.6
2016-Jul-22 21:28N 40°39' W 074°10'0 0.0
2016-Jul-22 20:33N 40°39' W 074°10'0 0.0
2016-Jul-22 19:33N 40°39' W 074°10'0 0.0
2016-Jul-22 18:31N 40°39' W 074°10'0 0.0
2016-Jul-22 17:30N 40°39' W 074°10'0 0.0
2016-Jul-22 16:33N 40°39' W 074°10'4 4.3
2016-Jul-22 15:33N 40°39' W 074°04'7 6.9
2016-Jul-22 14:33N 40°46' W 074°00'4 0.6
2016-Jul-22 07:20N 40°49' W 073°58'13 7.6
2016-Jul-22 05:34N 40°39' W 074°08'3 0.6
2016-Jul-22 00:32N 40°37' W 074°12'5 5.5
2016-Jul-21 23:33N 40°39' W 074°05'0 0.0
2016-Jul-21 22:33N 40°39' W 074°05'3 3.3
2016-Jul-21 21:32N 40°39' W 074°10'0 0.0
2016-Jul-21 20:30N 40°39' W 074°10'0 0.0
2016-Jul-21 19:15N 40°39' W 074°10'0 0.0
2016-Jul-21 13:30N 40°39' W 074°10'0 0.0
2016-Jul-21 12:33N 40°39' W 074°10'0 0.0
2016-Jul-21 01:20N 40°39' W 074°10'0 0.1
2016-Jul-21 00:33N 40°39' W 074°10'0 0.1
2016-Jul-20 23:28N 40°39' W 074°10'0 0.0
2016-Jul-20 21:28N 40°38' W 074°10'0 0.0
2016-Jul-20 20:30N 40°39' W 074°10'3 3.6
2016-Jul-20 19:33N 40°39' W 074°06'1 0.5
2016-Jul-20 18:33N 40°39' W 074°05'4 0.6
2016-Jul-20 11:32N 40°39' W 074°10'0 0.1
2016-Jul-20 10:33N 40°39' W 074°10'0 0.0
2016-Jul-20 08:10N 40°39' W 074°10'0 0.0
2016-Jul-20 07:23N 40°39' W 074°10'0 0.0
2016-Jul-20 06:34N 40°39' W 074°10'0 0.0
2016-Jul-20 05:33N 40°38' W 074°10'0 0.0
2016-Jul-20 04:31N 40°38' W 074°10'0 0.1
2016-Jul-20 03:33N 40°39' W 074°10'2 2.0
2016-Jul-20 02:33N 40°40' W 074°08'0 0.1
2016-Jul-20 01:33N 40°40' W 074°08'0 0.2
2016-Jul-20 00:33N 40°40' W 074°08'2 1.6
2016-Jul-19 23:33N 40°39' W 074°08'3 2.9
2016-Jul-19 22:33N 40°39' W 074°04'4 4.4
2016-Jul-19 21:33N 40°39' W 074°10'0 0.0
2016-Jul-19 20:33N 40°39' W 074°10'0 0.0
2016-Jul-19 19:33N 40°39' W 074°10'0 0.0
2016-Jul-19 18:33N 40°39' W 074°10'  
Track history (hours):
 
Tides and Currents Weather Stations Pressure Air Temp Water Temp Dewpoint Dewpoint Depression Visibility Wind Speed Wind Dir Waves Ship Positions

Al Cenac

Owner: Caillou Island Towing Co, Inc., Houma, LA. More information available from US FCC via Universal Licensing System and Coast Guard Vessel Documentation Center.

Last reported at 2016-Jul-29 17:33 UTC. Time now 2016-Jul-29 17:54 UTC.
Position N 40°42' W 073°58'.

; draft 10 m.

Type: Tug. MMSI: 367158530.

Date/timePositionNaut miles runAvg speedWind from/ knotsBaromVisibWave heightAir tempDewpointWater temp
2016-Jul-29 17:33N 40°42' W 073°58'0 0.1
2016-Jul-29 16:33N 40°42' W 073°58'2 1.8
2016-Jul-29 15:33N 40°41' W 074°00'8 7.5
2016-Jul-29 14:32N 40°38' W 074°10'0 0.0
2016-Jul-28 16:26N 40°38' W 074°10'0 0.0
2016-Jul-28 11:27N 40°39' W 074°10'3 0.3
2016-Jul-28 01:33N 40°39' W 074°06'9 8.7
2016-Jul-28 00:33N 40°46' W 074°00'3 0.5
2016-Jul-27 19:07N 40°49' W 073°59'611.5
2016-Jul-27 18:34N 40°43' W 074°02'8 1.9
2016-Jul-27 14:28N 40°39' W 074°10'0 0.1
2016-Jul-27 10:33N 40°38' W 074°10'0 0.3
2016-Jul-27 09:33N 40°39' W 074°10'0 0.0
2016-Jul-27 08:33N 40°39' W 074°10'0 0.0
2016-Jul-27 07:33N 40°39' W 074°10'0 0.0
2016-Jul-27 06:33N 40°39' W 074°10'0 0.0
2016-Jul-27 05:33N 40°39' W 074°10'0 0.0
2016-Jul-27 04:33N 40°39' W 074°10'0 0.0
2016-Jul-27 03:33N 40°39' W 074°10'0 0.0
2016-Jul-27 02:33N 40°39' W 074°10'1 0.7
2016-Jul-27 01:33N 40°38' W 074°09'2 2.5
2016-Jul-27 00:33N 40°39' W 074°06'0 0.0
2016-Jul-26 23:33N 40°39' W 074°06'0 0.0
2016-Jul-26 22:33N 40°39' W 074°06'4 1.9
2016-Jul-26 20:17N 40°38' W 074°12'1 0.1
2016-Jul-25 22:19N 40°39' W 074°10'5 5.9
2016-Jul-25 21:33N 40°40' W 074°04'5 3.0
2016-Jul-25 20:04N 40°39' W 074°10'4 7.6
2016-Jul-25 19:33N 40°39' W 074°05'0 0.5
2016-Jul-25 18:33N 40°39' W 074°04'4 4.1
2016-Jul-25 17:30N 40°39' W 074°10'4 4.5
2016-Jul-25 16:33N 40°39' W 074°04'4 0.5
2016-Jul-25 08:19N 40°39' W 074°10'0 0.0
2016-Jul-25 07:33N 40°39' W 074°10'0 0.0
2016-Jul-25 06:30N 40°39' W 074°10'0 0.0
2016-Jul-25 05:33N 40°39' W 074°10'  
2016-Jul-22 22:20N 40°37' W 074°12'2 2.6
2016-Jul-22 21:28N 40°39' W 074°10'0 0.0
2016-Jul-22 20:33N 40°39' W 074°10'0 0.0
2016-Jul-22 19:33N 40°39' W 074°10'0 0.0
2016-Jul-22 18:31N 40°39' W 074°10'0 0.0
2016-Jul-22 17:30N 40°39' W 074°10'0 0.0
2016-Jul-22 16:33N 40°39' W 074°10'4 4.3
2016-Jul-22 15:33N 40°39' W 074°04'7 6.9
2016-Jul-22 14:33N 40°46' W 074°00'4 0.6
2016-Jul-22 07:20N 40°49' W 073°58'13 7.6
2016-Jul-22 05:34N 40°39' W 074°08'3 0.6
2016-Jul-22 00:32N 40°37' W 074°12'5 5.5
2016-Jul-21 23:33N 40°39' W 074°05'0 0.0
2016-Jul-21 22:33N 40°39' W 074°05'3 3.3
2016-Jul-21 21:32N 40°39' W 074°10'0 0.0
2016-Jul-21 20:30N 40°39' W 074°10'0 0.0
2016-Jul-21 19:15N 40°39' W 074°10'0 0.0
2016-Jul-21 13:30N 40°39' W 074°10'0 0.0
2016-Jul-21 12:33N 40°39' W 074°10'0 0.0
2016-Jul-21 01:20N 40°39' W 074°10'0 0.1
2016-Jul-21 00:33N 40°39' W 074°10'0 0.1
2016-Jul-20 23:28N 40°39' W 074°10'0 0.0
2016-Jul-20 21:28N 40°38' W 074°10'0 0.0
2016-Jul-20 20:30N 40°39' W 074°10'3 3.6
2016-Jul-20 19:33N 40°39' W 074°06'1 0.5
2016-Jul-20 18:33N 40°39' W 074°05'4 0.6
2016-Jul-20 11:32N 40°39' W 074°10'0 0.1
2016-Jul-20 10:33N 40°39' W 074°10'0 0.0
2016-Jul-20 08:10N 40°39' W 074°10'0 0.0
2016-Jul-20 07:23N 40°39' W 074°10'0 0.0
2016-Jul-20 06:34N 40°39' W 074°10'0 0.0
2016-Jul-20 05:33N 40°38' W 074°10'0 0.0
2016-Jul-20 04:31N 40°38' W 074°10'0 0.1
2016-Jul-20 03:33N 40°39' W 074°10'2 2.0
2016-Jul-20 02:33N 40°40' W 074°08'0 0.1
2016-Jul-20 01:33N 40°40' W 074°08'0 0.2
2016-Jul-20 00:33N 40°40' W 074°08'2 1.6
2016-Jul-19 23:33N 40°39' W 074°08'3 2.9
2016-Jul-19 22:33N 40°39' W 074°04'4 4.4
2016-Jul-19 21:33N 40°39' W 074°10'0 0.0
2016-Jul-19 20:33N 40°39' W 074°10'0 0.0
2016-Jul-19 19:33N 40°39' W 074°10'0 0.0
2016-Jul-19 18:33N 40°39' W 074°10'  

Dump ship's entire track history